sensor_id;sensor_type;location;lat;lon;timestamp;P1;durP1;ratioP1;P2;durP2;ratioP2
44046;SDS011;29713;-33.888;151.150;2022-12-31T00:01:10;5.53;;;1.50;;
44046;SDS011;29713;-33.888;151.150;2022-12-31T00:03:38;4.10;;;1.38;;
44046;SDS011;29713;-33.888;151.150;2022-12-31T00:06:39;5.50;;;1.45;;
44046;SDS011;29713;-33.888;151.150;2022-12-31T00:09:02;7.05;;;1.20;;
44046;SDS011;29713;-33.888;151.150;2022-12-31T00:11:31;5.55;;;1.40;;
44046;SDS011;29713;-33.888;151.150;2022-12-31T00:13:59;3.97;;;1.33;;
44046;SDS011;29713;-33.888;151.150;2022-12-31T00:16:28;5.32;;;1.38;;
44046;SDS011;29713;-33.888;151.150;2022-12-31T00:18:58;3.95;;;1.10;;
44046;SDS011;29713;-33.888;151.150;2022-12-31T00:21:27;4.60;;;1.15;;
44046;SDS011;29713;-33.888;151.150;2022-12-31T00:23:56;6.53;;;1.30;;
44046;SDS011;29713;-33.888;151.150;2022-12-31T00:26:24;3.08;;;0.90;;
44046;SDS011;29713;-33.888;151.150;2022-12-31T00:28:54;3.92;;;1.10;;
44046;SDS011;29713;-33.888;151.150;2022-12-31T00:31:23;4.47;;;1.10;;
44046;SDS011;29713;-33.888;151.150;2022-12-31T00:33:55;5.30;;;1.13;;
44046;SDS011;29713;-33.888;151.150;2022-12-31T00:36:24;5.72;;;1.38;;
44046;SDS011;29713;-33.888;151.150;2022-12-31T00:38:55;5.40;;;1.27;;
44046;SDS011;29713;-33.888;151.150;2022-12-31T00:41:25;6.47;;;1.48;;
44046;SDS011;29713;-33.888;151.150;2022-12-31T00:43:54;4.90;;;1.08;;
44046;SDS011;29713;-33.888;151.150;2022-12-31T00:46:21;3.00;;;1.02;;
44046;SDS011;29713;-33.888;151.150;2022-12-31T00:48:49;3.97;;;1.20;;
44046;SDS011;29713;-33.888;151.150;2022-12-31T00:51:18;5.72;;;1.65;;
44046;SDS011;29713;-33.888;151.150;2022-12-31T00:53:47;6.22;;;1.40;;
44046;SDS011;29713;-33.888;151.150;2022-12-31T00:56:16;5.85;;;1.13;;
44046;SDS011;29713;-33.888;151.150;2022-12-31T00:58:46;5.50;;;1.15;;
44046;SDS011;29713;-33.888;151.150;2022-12-31T01:01:17;4.85;;;1.50;;
44046;SDS011;29713;-33.888;151.150;2022-12-31T01:03:46;4.68;;;1.15;;
44046;SDS011;29713;-33.888;151.150;2022-12-31T01:06:16;4.50;;;1.20;;
44046;SDS011;29713;-33.888;151.150;2022-12-31T01:08:44;3.42;;;1.02;;
44046;SDS011;29713;-33.888;151.150;2022-12-31T01:11:14;4.40;;;1.45;;
44046;SDS011;29713;-33.888;151.150;2022-12-31T01:16:28;5.00;;;1.20;;
44046;SDS011;29713;-33.888;151.150;2022-12-31T01:18:59;4.30;;;1.00;;
44046;SDS011;29713;-33.888;151.150;2022-12-31T01:21:29;6.00;;;1.05;;
44046;SDS011;29713;-33.888;151.150;2022-12-31T01:23:57;3.83;;;0.90;;
44046;SDS011;29713;-33.888;151.150;2022-12-31T01:26:25;3.50;;;1.05;;
44046;SDS011;29713;-33.888;151.150;2022-12-31T01:28:53;3.83;;;0.98;;
44046;SDS011;29713;-33.888;151.150;2022-12-31T01:31:21;4.00;;;1.10;;
44046;SDS011;29713;-33.888;151.150;2022-12-31T01:33:50;3.83;;;0.90;;
44046;SDS011;29713;-33.888;151.150;2022-12-31T01:36:21;4.97;;;0.90;;
44046;SDS011;29713;-33.888;151.150;2022-12-31T01:38:50;3.08;;;1.00;;
44046;SDS011;29713;-33.888;151.150;2022-12-31T01:41:20;3.83;;;1.10;;
44046;SDS011;29713;-33.888;151.150;2022-12-31T01:43:57;3.00;;;1.13;;
44046;SDS011;29713;-33.888;151.150;2022-12-31T01:46:34;2.80;;;0.95;;
44046;SDS011;29713;-33.888;151.150;2022-12-31T01:49:04;4.20;;;1.05;;
44046;SDS011;29713;-33.888;151.150;2022-12-31T01:51:40;4.70;;;1.33;;
44046;SDS011;29713;-33.888;151.150;2022-12-31T01:54:11;4.75;;;1.10;;
44046;SDS011;29713;-33.888;151.150;2022-12-31T01:56:43;3.40;;;0.98;;
44046;SDS011;29713;-33.888;151.150;2022-12-31T01:59:13;5.50;;;1.35;;
44046;SDS011;29713;-33.888;151.150;2022-12-31T02:01:43;5.30;;;1.17;;
44046;SDS011;29713;-33.888;151.150;2022-12-31T02:04:12;5.80;;;1.30;;
44046;SDS011;29713;-33.888;151.150;2022-12-31T02:07:14;5.70;;;1.00;;
44046;SDS011;29713;-33.888;151.150;2022-12-31T02:09:37;4.05;;;1.23;;
44046;SDS011;29713;-33.888;151.150;2022-12-31T02:12:06;3.47;;;1.20;;
44046;SDS011;29713;-33.888;151.150;2022-12-31T02:14:36;7.00;;;1.80;;
44046;SDS011;29713;-33.888;151.150;2022-12-31T02:19:54;5.70;;;1.35;;
44046;SDS011;29713;-33.888;151.150;2022-12-31T02:30:24;3.75;;;1.17;;
44046;SDS011;29713;-33.888;151.150;2022-12-31T02:33:02;7.22;;;1.65;;
44046;SDS011;29713;-33.888;151.150;2022-12-31T02:35:57;7.72;;;1.42;;
44046;SDS011;29713;-33.888;151.150;2022-12-31T02:38:38;2.78;;;1.25;;
44046;SDS011;29713;-33.888;151.150;2022-12-31T02:41:12;4.68;;;1.27;;
44046;SDS011;29713;-33.888;151.150;2022-12-31T02:44:00;4.30;;;1.10;;
44046;SDS011;29713;-33.888;151.150;2022-12-31T02:46:37;3.97;;;1.42;;
44046;SDS011;29713;-33.888;151.150;2022-12-31T02:49:58;5.15;;;1.45;;
44046;SDS011;29713;-33.888;151.150;2022-12-31T03:00:35;11.52;;;1.48;;
44046;SDS011;29713;-33.888;151.150;2022-12-31T03:03:30;5.40;;;1.33;;
44046;SDS011;29713;-33.888;151.150;2022-12-31T03:05:58;4.15;;;1.08;;
44046;SDS011;29713;-33.888;151.150;2022-12-31T03:08:28;2.75;;;0.98;;
44046;SDS011;29713;-33.888;151.150;2022-12-31T03:10:55;4.97;;;1.20;;
44046;SDS011;29713;-33.888;151.150;2022-12-31T03:13:23;3.92;;;1.10;;
44046;SDS011;29713;-33.888;151.150;2022-12-31T03:15:51;3.10;;;1.00;;
44046;SDS011;29713;-33.888;151.150;2022-12-31T03:18:19;3.17;;;1.27;;
44046;SDS011;29713;-33.888;151.150;2022-12-31T03:21:10;2.92;;;1.00;;
44046;SDS011;29713;-33.888;151.150;2022-12-31T03:23:56;3.28;;;1.13;;
44046;SDS011;29713;-33.888;151.150;2022-12-31T03:26:41;3.97;;;1.30;;
44046;SDS011;29713;-33.888;151.150;2022-12-31T03:29:09;7.63;;;1.52;;
44046;SDS011;29713;-33.888;151.150;2022-12-31T03:31:36;6.07;;;1.20;;
44046;SDS011;29713;-33.888;151.150;2022-12-31T03:34:03;6.85;;;1.70;;
44046;SDS011;29713;-33.888;151.150;2022-12-31T03:36:31;5.20;;;1.05;;
44046;SDS011;29713;-33.888;151.150;2022-12-31T03:38:58;5.28;;;1.30;;
44046;SDS011;29713;-33.888;151.150;2022-12-31T03:41:25;4.55;;;0.98;;
44046;SDS011;29713;-33.888;151.150;2022-12-31T03:43:52;7.22;;;1.50;;
44046;SDS011;29713;-33.888;151.150;2022-12-31T03:46:20;6.53;;;1.30;;
44046;SDS011;29713;-33.888;151.150;2022-12-31T03:48:47;5.28;;;1.40;;
44046;SDS011;29713;-33.888;151.150;2022-12-31T03:51:15;7.03;;;1.55;;
44046;SDS011;29713;-33.888;151.150;2022-12-31T03:53:42;6.78;;;1.45;;
44046;SDS011;29713;-33.888;151.150;2022-12-31T03:56:09;4.25;;;1.60;;
44046;SDS011;29713;-33.888;151.150;2022-12-31T03:58:37;6.25;;;1.20;;
44046;SDS011;29713;-33.888;151.150;2022-12-31T04:01:04;5.95;;;1.40;;
44046;SDS011;29713;-33.888;151.150;2022-12-31T04:03:31;5.88;;;1.42;;
44046;SDS011;29713;-33.888;151.150;2022-12-31T04:05:58;5.53;;;1.48;;
44046;SDS011;29713;-33.888;151.150;2022-12-31T04:08:26;6.38;;;1.35;;
44046;SDS011;29713;-33.888;151.150;2022-12-31T04:10:53;4.15;;;1.20;;
44046;SDS011;29713;-33.888;151.150;2022-12-31T04:13:20;4.20;;;1.23;;
44046;SDS011;29713;-33.888;151.150;2022-12-31T04:15:51;6.72;;;1.80;;
44046;SDS011;29713;-33.888;151.150;2022-12-31T04:18:18;6.38;;;1.50;;
44046;SDS011;29713;-33.888;151.150;2022-12-31T04:20:45;4.65;;;1.42;;
44046;SDS011;29713;-33.888;151.150;2022-12-31T04:23:13;4.50;;;1.15;;
44046;SDS011;29713;-33.888;151.150;2022-12-31T04:25:40;5.43;;;1.40;;
44046;SDS011;29713;-33.888;151.150;2022-12-31T04:28:07;10.02;;;2.25;;
44046;SDS011;29713;-33.888;151.150;2022-12-31T04:30:34;7.18;;;1.55;;
44046;SDS011;29713;-33.888;151.150;2022-12-31T04:33:02;6.03;;;1.58;;
44046;SDS011;29713;-33.888;151.150;2022-12-31T04:35:29;3.90;;;1.20;;
44046;SDS011;29713;-33.888;151.150;2022-12-31T04:37:56;6.13;;;1.52;;
44046;SDS011;29713;-33.888;151.150;2022-12-31T04:40:24;4.50;;;1.25;;
44046;SDS011;29713;-33.888;151.150;2022-12-31T04:42:51;5.93;;;1.10;;
44046;SDS011;29713;-33.888;151.150;2022-12-31T04:45:18;6.25;;;1.73;;
44046;SDS011;29713;-33.888;151.150;2022-12-31T04:47:45;7.68;;;1.70;;
44046;SDS011;29713;-33.888;151.150;2022-12-31T04:50:13;8.45;;;1.67;;
44046;SDS011;29713;-33.888;151.150;2022-12-31T04:52:40;6.32;;;1.70;;
44046;SDS011;29713;-33.888;151.150;2022-12-31T04:55:07;5.80;;;1.60;;
44046;SDS011;29713;-33.888;151.150;2022-12-31T04:57:35;14.52;;;2.03;;
44046;SDS011;29713;-33.888;151.150;2022-12-31T05:00:02;4.55;;;1.45;;
44046;SDS011;29713;-33.888;151.150;2022-12-31T05:02:30;5.38;;;1.42;;
44046;SDS011;29713;-33.888;151.150;2022-12-31T05:04:57;5.63;;;1.60;;
44046;SDS011;29713;-33.888;151.150;2022-12-31T05:07:25;5.65;;;1.20;;
44046;SDS011;29713;-33.888;151.150;2022-12-31T05:09:52;5.38;;;1.48;;
44046;SDS011;29713;-33.888;151.150;2022-12-31T05:12:19;6.80;;;1.33;;
44046;SDS011;29713;-33.888;151.150;2022-12-31T05:14:46;9.80;;;1.55;;
44046;SDS011;29713;-33.888;151.150;2022-12-31T05:17:14;6.78;;;1.60;;
44046;SDS011;29713;-33.888;151.150;2022-12-31T05:19:41;6.18;;;1.77;;
44046;SDS011;29713;-33.888;151.150;2022-12-31T05:22:08;6.65;;;1.70;;
44046;SDS011;29713;-33.888;151.150;2022-12-31T05:24:54;6.60;;;2.00;;
44046;SDS011;29713;-33.888;151.150;2022-12-31T05:27:25;10.43;;;1.85;;
44046;SDS011;29713;-33.888;151.150;2022-12-31T05:29:57;8.18;;;1.98;;
44046;SDS011;29713;-33.888;151.150;2022-12-31T05:32:24;6.85;;;1.63;;
44046;SDS011;29713;-33.888;151.150;2022-12-31T05:34:52;5.03;;;1.20;;
44046;SDS011;29713;-33.888;151.150;2022-12-31T05:37:19;9.15;;;1.50;;
44046;SDS011;29713;-33.888;151.150;2022-12-31T05:39:46;4.43;;;1.30;;
44046;SDS011;29713;-33.888;151.150;2022-12-31T05:42:13;4.20;;;1.25;;
44046;SDS011;29713;-33.888;151.150;2022-12-31T05:44:41;5.40;;;1.55;;
44046;SDS011;29713;-33.888;151.150;2022-12-31T05:47:08;6.43;;;1.65;;
44046;SDS011;29713;-33.888;151.150;2022-12-31T05:49:36;6.95;;;1.80;;
44046;SDS011;29713;-33.888;151.150;2022-12-31T05:52:04;6.88;;;1.90;;
44046;SDS011;29713;-33.888;151.150;2022-12-31T05:54:31;8.50;;;1.90;;
44046;SDS011;29713;-33.888;151.150;2022-12-31T05:56:59;6.07;;;1.73;;
44046;SDS011;29713;-33.888;151.150;2022-12-31T05:59:26;6.60;;;1.85;;
44046;SDS011;29713;-33.888;151.150;2022-12-31T06:01:53;5.10;;;1.60;;
44046;SDS011;29713;-33.888;151.150;2022-12-31T06:04:21;8.10;;;1.90;;
44046;SDS011;29713;-33.888;151.150;2022-12-31T06:06:48;5.63;;;1.50;;
44046;SDS011;29713;-33.888;151.150;2022-12-31T06:09:16;5.82;;;1.63;;
44046;SDS011;29713;-33.888;151.150;2022-12-31T06:11:44;7.95;;;2.03;;
44046;SDS011;29713;-33.888;151.150;2022-12-31T06:14:12;6.70;;;3.08;;
44046;SDS011;29713;-33.888;151.150;2022-12-31T06:16:39;13.00;;;4.20;;
44046;SDS011;29713;-33.888;151.150;2022-12-31T06:19:08;12.57;;;6.18;;
44046;SDS011;29713;-33.888;151.150;2022-12-31T06:21:35;20.02;;;11.73;;
44046;SDS011;29713;-33.888;151.150;2022-12-31T06:24:02;37.85;;;24.92;;
44046;SDS011;29713;-33.888;151.150;2022-12-31T06:26:30;18.95;;;13.52;;
44046;SDS011;29713;-33.888;151.150;2022-12-31T06:28:57;57.63;;;35.38;;
44046;SDS011;29713;-33.888;151.150;2022-12-31T06:31:25;164.25;;;99.43;;
44046;SDS011;29713;-33.888;151.150;2022-12-31T06:33:52;17.35;;;7.72;;
44046;SDS011;29713;-33.888;151.150;2022-12-31T06:36:19;10.40;;;3.65;;
44046;SDS011;29713;-33.888;151.150;2022-12-31T06:38:47;6.78;;;1.85;;
44046;SDS011;29713;-33.888;151.150;2022-12-31T06:41:15;10.35;;;2.58;;
44046;SDS011;29713;-33.888;151.150;2022-12-31T06:43:43;10.52;;;2.60;;
44046;SDS011;29713;-33.888;151.150;2022-12-31T06:46:12;7.90;;;2.83;;
44046;SDS011;29713;-33.888;151.150;2022-12-31T06:48:41;8.88;;;3.13;;
44046;SDS011;29713;-33.888;151.150;2022-12-31T06:51:13;10.38;;;3.95;;
44046;SDS011;29713;-33.888;151.150;2022-12-31T06:53:46;6.90;;;2.22;;
44046;SDS011;29713;-33.888;151.150;2022-12-31T06:56:16;12.98;;;3.17;;
44046;SDS011;29713;-33.888;151.150;2022-12-31T06:58:45;8.80;;;2.05;;
44046;SDS011;29713;-33.888;151.150;2022-12-31T07:15:15;10.93;;;2.35;;
44046;SDS011;29713;-33.888;151.150;2022-12-31T07:17:47;9.55;;;2.42;;
44046;SDS011;29713;-33.888;151.150;2022-12-31T07:20:27;11.50;;;2.30;;
44046;SDS011;29713;-33.888;151.150;2022-12-31T07:22:54;8.68;;;2.15;;
44046;SDS011;29713;-33.888;151.150;2022-12-31T07:25:22;9.73;;;2.22;;
44046;SDS011;29713;-33.888;151.150;2022-12-31T07:31:10;9.57;;;1.90;;
44046;SDS011;29713;-33.888;151.150;2022-12-31T07:33:50;5.78;;;1.70;;
44046;SDS011;29713;-33.888;151.150;2022-12-31T07:37:02;7.68;;;2.10;;
44046;SDS011;29713;-33.888;151.150;2022-12-31T07:40:09;7.25;;;1.65;;
44046;SDS011;29713;-33.888;151.150;2022-12-31T07:42:58;9.75;;;2.42;;
44046;SDS011;29713;-33.888;151.150;2022-12-31T07:45:57;11.32;;;2.38;;
44046;SDS011;29713;-33.888;151.150;2022-12-31T07:48:32;10.73;;;2.47;;
44046;SDS011;29713;-33.888;151.150;2022-12-31T07:50:59;8.13;;;1.88;;
44046;SDS011;29713;-33.888;151.150;2022-12-31T07:53:27;11.77;;;2.15;;
44046;SDS011;29713;-33.888;151.150;2022-12-31T07:55:58;8.50;;;1.90;;
44046;SDS011;29713;-33.888;151.150;2022-12-31T08:01:10;9.00;;;2.60;;
44046;SDS011;29713;-33.888;151.150;2022-12-31T08:06:23;11.23;;;2.55;;
44046;SDS011;29713;-33.888;151.150;2022-12-31T08:12:04;8.23;;;2.28;;
44046;SDS011;29713;-33.888;151.150;2022-12-31T08:14:32;6.88;;;1.80;;
44046;SDS011;29713;-33.888;151.150;2022-12-31T08:17:10;8.95;;;2.10;;
44046;SDS011;29713;-33.888;151.150;2022-12-31T08:19:39;7.60;;;2.25;;
44046;SDS011;29713;-33.888;151.150;2022-12-31T08:22:16;8.95;;;2.28;;
44046;SDS011;29713;-33.888;151.150;2022-12-31T08:25:11;12.23;;;2.90;;
44046;SDS011;29713;-33.888;151.150;2022-12-31T08:30:27;10.95;;;2.28;;
44046;SDS011;29713;-33.888;151.150;2022-12-31T08:33:18;11.13;;;2.70;;
44046;SDS011;29713;-33.888;151.150;2022-12-31T08:36:01;10.38;;;2.80;;
44046;SDS011;29713;-33.888;151.150;2022-12-31T08:39:02;9.82;;;2.55;;
44046;SDS011;29713;-33.888;151.150;2022-12-31T08:41:40;10.77;;;2.28;;
44046;SDS011;29713;-33.888;151.150;2022-12-31T08:49:15;11.15;;;3.10;;
44046;SDS011;29713;-33.888;151.150;2022-12-31T08:51:43;14.45;;;3.90;;
44046;SDS011;29713;-33.888;151.150;2022-12-31T08:54:10;15.45;;;3.83;;
44046;SDS011;29713;-33.888;151.150;2022-12-31T08:56:39;13.23;;;3.72;;
44046;SDS011;29713;-33.888;151.150;2022-12-31T08:59:37;14.07;;;3.00;;
44046;SDS011;29713;-33.888;151.150;2022-12-31T09:05:21;15.95;;;3.20;;
44046;SDS011;29713;-33.888;151.150;2022-12-31T09:16:16;14.63;;;2.95;;
44046;SDS011;29713;-33.888;151.150;2022-12-31T09:18:45;15.95;;;3.85;;
44046;SDS011;29713;-33.888;151.150;2022-12-31T09:21:13;12.85;;;3.30;;
44046;SDS011;29713;-33.888;151.150;2022-12-31T09:23:41;21.85;;;4.38;;
44046;SDS011;29713;-33.888;151.150;2022-12-31T09:26:16;22.13;;;4.60;;
44046;SDS011;29713;-33.888;151.150;2022-12-31T09:34:42;12.82;;;3.70;;
44046;SDS011;29713;-33.888;151.150;2022-12-31T09:37:14;14.65;;;3.33;;
44046;SDS011;29713;-33.888;151.150;2022-12-31T09:39:50;17.40;;;3.78;;
44046;SDS011;29713;-33.888;151.150;2022-12-31T09:58:43;13.18;;;2.83;;
44046;SDS011;29713;-33.888;151.150;2022-12-31T10:12:39;15.38;;;2.83;;
44046;SDS011;29713;-33.888;151.150;2022-12-31T10:18:36;112.32;;;77.13;;
44046;SDS011;29713;-33.888;151.150;2022-12-31T10:27:24;165.82;;;124.78;;
44046;SDS011;29713;-33.888;151.150;2022-12-31T10:30:14;93.03;;;64.85;;
44046;SDS011;29713;-33.888;151.150;2022-12-31T10:36:08;26.25;;;11.13;;
44046;SDS011;29713;-33.888;151.150;2022-12-31T10:38:49;26.50;;;9.15;;
44046;SDS011;29713;-33.888;151.150;2022-12-31T11:00:36;19.63;;;3.58;;
44046;SDS011;29713;-33.888;151.150;2022-12-31T11:09:09;20.15;;;3.53;;
44046;SDS011;29713;-33.888;151.150;2022-12-31T11:15:16;14.95;;;3.40;;
44046;SDS011;29713;-33.888;151.150;2022-12-31T11:26:45;11.70;;;4.90;;
44046;SDS011;29713;-33.888;151.150;2022-12-31T11:32:21;18.13;;;4.60;;
44046;SDS011;29713;-33.888;151.150;2022-12-31T11:37:49;18.50;;;3.35;;
44046;SDS011;29713;-33.888;151.150;2022-12-31T12:00:13;16.73;;;3.88;;
44046;SDS011;29713;-33.888;151.150;2022-12-31T12:02:46;13.43;;;3.40;;
44046;SDS011;29713;-33.888;151.150;2022-12-31T12:05:23;15.05;;;2.90;;
44046;SDS011;29713;-33.888;151.150;2022-12-31T12:07:51;14.25;;;2.80;;
44046;SDS011;29713;-33.888;151.150;2022-12-31T12:10:35;15.23;;;2.92;;
44046;SDS011;29713;-33.888;151.150;2022-12-31T12:13:28;14.73;;;3.13;;
44046;SDS011;29713;-33.888;151.150;2022-12-31T12:15:57;14.40;;;2.70;;
44046;SDS011;29713;-33.888;151.150;2022-12-31T12:18:28;15.98;;;3.10;;
44046;SDS011;29713;-33.888;151.150;2022-12-31T12:21:04;17.67;;;3.22;;
44046;SDS011;29713;-33.888;151.150;2022-12-31T12:23:35;19.55;;;3.88;;
44046;SDS011;29713;-33.888;151.150;2022-12-31T12:26:02;14.75;;;3.15;;
44046;SDS011;29713;-33.888;151.150;2022-12-31T12:28:40;17.05;;;3.78;;
44046;SDS011;29713;-33.888;151.150;2022-12-31T12:31:18;15.40;;;3.75;;
44046;SDS011;29713;-33.888;151.150;2022-12-31T12:33:49;12.15;;;2.97;;
44046;SDS011;29713;-33.888;151.150;2022-12-31T12:36:17;12.18;;;2.42;;
44046;SDS011;29713;-33.888;151.150;2022-12-31T12:38:45;17.52;;;2.95;;
44046;SDS011;29713;-33.888;151.150;2022-12-31T12:41:21;19.70;;;3.17;;
44046;SDS011;29713;-33.888;151.150;2022-12-31T12:44:04;13.63;;;3.22;;
44046;SDS011;29713;-33.888;151.150;2022-12-31T12:46:51;12.65;;;2.95;;
44046;SDS011;29713;-33.888;151.150;2022-12-31T12:49:26;14.77;;;3.50;;
44046;SDS011;29713;-33.888;151.150;2022-12-31T12:54:31;16.48;;;3.90;;
44046;SDS011;29713;-33.888;151.150;2022-12-31T12:57:52;16.70;;;3.50;;
44046;SDS011;29713;-33.888;151.150;2022-12-31T13:14:25;12.50;;;2.78;;
44046;SDS011;29713;-33.888;151.150;2022-12-31T13:16:57;19.23;;;9.20;;
44046;SDS011;29713;-33.888;151.150;2022-12-31T13:19:58;51.03;;;36.65;;
44046;SDS011;29713;-33.888;151.150;2022-12-31T13:22:43;69.82;;;51.92;;
44046;SDS011;29713;-33.888;151.150;2022-12-31T13:28:18;96.93;;;76.00;;
44046;SDS011;29713;-33.888;151.150;2022-12-31T13:30:52;121.65;;;94.03;;
44046;SDS011;29713;-33.888;151.150;2022-12-31T13:33:46;143.13;;;110.85;;
44046;SDS011;29713;-33.888;151.150;2022-12-31T13:36:16;138.52;;;102.70;;
44046;SDS011;29713;-33.888;151.150;2022-12-31T13:41:18;92.75;;;66.90;;
44046;SDS011;29713;-33.888;151.150;2022-12-31T13:43:54;75.70;;;57.97;;
44046;SDS011;29713;-33.888;151.150;2022-12-31T13:46:51;68.78;;;47.13;;
44046;SDS011;29713;-33.888;151.150;2022-12-31T13:57:46;24.30;;;12.63;;
44046;SDS011;29713;-33.888;151.150;2022-12-31T14:02:53;16.45;;;7.07;;
44046;SDS011;29713;-33.888;151.150;2022-12-31T14:08:08;18.67;;;6.40;;
44046;SDS011;29713;-33.888;151.150;2022-12-31T14:10:40;16.15;;;5.63;;
44046;SDS011;29713;-33.888;151.150;2022-12-31T14:13:30;17.27;;;4.40;;
44046;SDS011;29713;-33.888;151.150;2022-12-31T14:16:21;12.73;;;3.53;;
44046;SDS011;29713;-33.888;151.150;2022-12-31T14:21:34;17.77;;;4.35;;
44046;SDS011;29713;-33.888;151.150;2022-12-31T14:26:43;17.17;;;3.33;;
44046;SDS011;29713;-33.888;151.150;2022-12-31T14:29:17;17.92;;;3.83;;
44046;SDS011;29713;-33.888;151.150;2022-12-31T14:32:07;10.25;;;3.13;;
44046;SDS011;29713;-33.888;151.150;2022-12-31T14:40:15;19.30;;;3.63;;
44046;SDS011;29713;-33.888;151.150;2022-12-31T14:51:20;13.10;;;3.47;;
44046;SDS011;29713;-33.888;151.150;2022-12-31T14:53:53;13.15;;;3.28;;
44046;SDS011;29713;-33.888;151.150;2022-12-31T14:59:27;13.82;;;2.88;;
44046;SDS011;29713;-33.888;151.150;2022-12-31T15:01:56;14.07;;;3.53;;
44046;SDS011;29713;-33.888;151.150;2022-12-31T15:04:41;13.02;;;3.05;;
44046;SDS011;29713;-33.888;151.150;2022-12-31T15:07:17;18.58;;;3.65;;
44046;SDS011;29713;-33.888;151.150;2022-12-31T15:12:29;14.40;;;3.30;;
44046;SDS011;29713;-33.888;151.150;2022-12-31T15:17:47;14.30;;;2.95;;
44046;SDS011;29713;-33.888;151.150;2022-12-31T15:23:32;17.73;;;3.78;;
44046;SDS011;29713;-33.888;151.150;2022-12-31T15:26:01;17.02;;;2.78;;
44046;SDS011;29713;-33.888;151.150;2022-12-31T15:31:18;11.52;;;3.17;;
44046;SDS011;29713;-33.888;151.150;2022-12-31T15:34:02;14.43;;;3.35;;
44046;SDS011;29713;-33.888;151.150;2022-12-31T15:39:05;11.77;;;2.33;;
44046;SDS011;29713;-33.888;151.150;2022-12-31T15:41:41;10.40;;;2.58;;
44046;SDS011;29713;-33.888;151.150;2022-12-31T15:46:40;8.48;;;2.47;;
44046;SDS011;29713;-33.888;151.150;2022-12-31T15:49:14;9.38;;;2.08;;
44046;SDS011;29713;-33.888;151.150;2022-12-31T15:54:26;11.25;;;2.58;;
44046;SDS011;29713;-33.888;151.150;2022-12-31T15:57:11;13.23;;;2.63;;
44046;SDS011;29713;-33.888;151.150;2022-12-31T15:59:44;11.93;;;2.38;;
44046;SDS011;29713;-33.888;151.150;2022-12-31T16:02:24;10.23;;;2.10;;
44046;SDS011;29713;-33.888;151.150;2022-12-31T16:04:53;12.05;;;2.25;;
44046;SDS011;29713;-33.888;151.150;2022-12-31T16:07:21;10.82;;;2.35;;
44046;SDS011;29713;-33.888;151.150;2022-12-31T16:09:52;8.35;;;1.95;;
44046;SDS011;29713;-33.888;151.150;2022-12-31T16:12:23;8.02;;;1.92;;
44046;SDS011;29713;-33.888;151.150;2022-12-31T16:14:53;9.57;;;2.17;;
44046;SDS011;29713;-33.888;151.150;2022-12-31T16:17:30;7.47;;;2.03;;
44046;SDS011;29713;-33.888;151.150;2022-12-31T16:20:00;6.80;;;1.50;;
44046;SDS011;29713;-33.888;151.150;2022-12-31T16:22:53;6.72;;;1.88;;
44046;SDS011;29713;-33.888;151.150;2022-12-31T16:25:28;5.78;;;1.70;;
44046;SDS011;29713;-33.888;151.150;2022-12-31T16:27:57;6.25;;;1.40;;
44046;SDS011;29713;-33.888;151.150;2022-12-31T16:30:32;5.68;;;1.48;;
44046;SDS011;29713;-33.888;151.150;2022-12-31T16:33:03;7.63;;;1.70;;
44046;SDS011;29713;-33.888;151.150;2022-12-31T16:35:36;4.00;;;1.50;;
44046;SDS011;29713;-33.888;151.150;2022-12-31T16:38:10;8.45;;;1.95;;
44046;SDS011;29713;-33.888;151.150;2022-12-31T16:40:42;6.60;;;1.83;;
44046;SDS011;29713;-33.888;151.150;2022-12-31T16:43:38;8.35;;;2.00;;
44046;SDS011;29713;-33.888;151.150;2022-12-31T16:48:54;6.93;;;2.10;;
44046;SDS011;29713;-33.888;151.150;2022-12-31T16:51:23;6.53;;;2.13;;
44046;SDS011;29713;-33.888;151.150;2022-12-31T16:53:54;8.13;;;2.20;;
44046;SDS011;29713;-33.888;151.150;2022-12-31T16:56:31;6.82;;;1.83;;
44046;SDS011;29713;-33.888;151.150;2022-12-31T16:59:13;4.93;;;1.40;;
44046;SDS011;29713;-33.888;151.150;2022-12-31T17:01:44;6.47;;;1.67;;
44046;SDS011;29713;-33.888;151.150;2022-12-31T17:04:13;5.57;;;1.67;;
44046;SDS011;29713;-33.888;151.150;2022-12-31T17:06:44;5.45;;;1.27;;
44046;SDS011;29713;-33.888;151.150;2022-12-31T17:09:16;6.38;;;1.55;;
44046;SDS011;29713;-33.888;151.150;2022-12-31T17:14:22;5.75;;;1.67;;
44046;SDS011;29713;-33.888;151.150;2022-12-31T17:17:06;7.40;;;2.15;;
44046;SDS011;29713;-33.888;151.150;2022-12-31T17:22:03;6.20;;;1.65;;
44046;SDS011;29713;-33.888;151.150;2022-12-31T17:24:35;8.50;;;1.60;;
44046;SDS011;29713;-33.888;151.150;2022-12-31T17:27:05;4.78;;;1.75;;
44046;SDS011;29713;-33.888;151.150;2022-12-31T17:29:34;7.65;;;2.00;;
44046;SDS011;29713;-33.888;151.150;2022-12-31T17:32:06;6.32;;;1.75;;
44046;SDS011;29713;-33.888;151.150;2022-12-31T17:34:52;7.20;;;1.95;;
44046;SDS011;29713;-33.888;151.150;2022-12-31T17:37:29;8.23;;;2.05;;
44046;SDS011;29713;-33.888;151.150;2022-12-31T17:39:57;5.40;;;1.77;;
44046;SDS011;29713;-33.888;151.150;2022-12-31T17:42:30;7.03;;;1.83;;
44046;SDS011;29713;-33.888;151.150;2022-12-31T17:45:02;7.80;;;1.70;;
44046;SDS011;29713;-33.888;151.150;2022-12-31T17:47:37;9.35;;;1.80;;
44046;SDS011;29713;-33.888;151.150;2022-12-31T17:50:22;6.18;;;1.80;;
44046;SDS011;29713;-33.888;151.150;2022-12-31T17:52:52;6.78;;;1.98;;
44046;SDS011;29713;-33.888;151.150;2022-12-31T17:55:25;10.15;;;2.03;;
44046;SDS011;29713;-33.888;151.150;2022-12-31T17:57:54;10.75;;;2.67;;
44046;SDS011;29713;-33.888;151.150;2022-12-31T18:00:24;4.97;;;1.90;;
44046;SDS011;29713;-33.888;151.150;2022-12-31T18:02:53;10.48;;;2.72;;
44046;SDS011;29713;-33.888;151.150;2022-12-31T18:05:21;7.22;;;2.47;;
44046;SDS011;29713;-33.888;151.150;2022-12-31T18:07:50;9.05;;;3.15;;
44046;SDS011;29713;-33.888;151.150;2022-12-31T18:10:19;10.55;;;3.88;;
44046;SDS011;29713;-33.888;151.150;2022-12-31T18:12:47;8.65;;;3.72;;
44046;SDS011;29713;-33.888;151.150;2022-12-31T18:15:17;10.32;;;4.10;;
44046;SDS011;29713;-33.888;151.150;2022-12-31T18:17:49;8.70;;;4.05;;
44046;SDS011;29713;-33.888;151.150;2022-12-31T18:20:16;10.52;;;3.80;;
44046;SDS011;29713;-33.888;151.150;2022-12-31T18:22:44;12.32;;;3.78;;
44046;SDS011;29713;-33.888;151.150;2022-12-31T18:25:19;11.43;;;4.30;;
44046;SDS011;29713;-33.888;151.150;2022-12-31T18:27:50;14.23;;;3.60;;
44046;SDS011;29713;-33.888;151.150;2022-12-31T18:30:17;7.55;;;3.30;;
44046;SDS011;29713;-33.888;151.150;2022-12-31T18:32:45;8.75;;;2.88;;
44046;SDS011;29713;-33.888;151.150;2022-12-31T18:35:17;8.80;;;3.13;;
44046;SDS011;29713;-33.888;151.150;2022-12-31T18:37:45;7.55;;;2.75;;
44046;SDS011;29713;-33.888;151.150;2022-12-31T18:40:12;10.55;;;2.85;;
44046;SDS011;29713;-33.888;151.150;2022-12-31T18:42:40;8.07;;;2.72;;
44046;SDS011;29713;-33.888;151.150;2022-12-31T18:45:15;8.63;;;2.97;;
44046;SDS011;29713;-33.888;151.150;2022-12-31T18:47:44;8.77;;;2.85;;
44046;SDS011;29713;-33.888;151.150;2022-12-31T18:50:14;7.30;;;2.47;;
44046;SDS011;29713;-33.888;151.150;2022-12-31T18:52:42;9.52;;;2.78;;
44046;SDS011;29713;-33.888;151.150;2022-12-31T18:55:52;11.00;;;3.20;;
44046;SDS011;29713;-33.888;151.150;2022-12-31T18:58:05;10.70;;;3.53;;